Flight Track Log - Related Links

Times and Time Zones

All times are in EST time to prevent confusion due to time zone crossing. See the FSR411 flight status page for this flight to view local times or setup timezone preferences in your user account.


Time Position Orientation Groundspeed Altitude Reporting Facility
EST Latitude Longitude Course Direction KTS MPH feet Rate Location/Type
Mon 04:53:50 PM 41.8333 -87.7667 76° East 224 258 2,600  Level Chicago TRACON
Mon 04:54:50 PM 41.8167 -87.6667 103° East 289 333 3,000 682 Climbing Chicago TRACON
Mon 04:56:02 PM 41.7969 -87.5369 101° East 286 329 4,100 1,925 Climbing Chicago Center
Mon 04:57:04 PM 41.7861 -87.4211 97° East 314 361 7,300 3,339 Climbing Chicago Center
Mon 04:58:06 PM 41.7792 -87.2989 94° East 327 376 11,000 3,339 Climbing Chicago Center
Mon 04:59:00 PM 41.7735 -86.7661 76° East  Level Estimated
Mon 04:59:08 PM 41.7689 -87.1633 96° East 361 415 14,200  Level Chicago Center
Mon 05:00:10 PM 41.7736 -86.9972 88° East 448 516 17,200 2,952 Climbing Chicago Center
Mon 05:01:12 PM 41.7953 -86.8144 81° East 493 567 20,300 3,145 Climbing Chicago Center
Mon 05:02:14 PM 41.8183 -86.5939 82° East 531 611 23,700 2,952 Climbing Chicago Center
Mon 05:03:16 PM 41.8389 -86.3897 82° East 550 633 26,400 2,516 Climbing Chicago Center
Mon 05:04:18 PM 41.8606 -86.1797 82° East 566 651 28,900 2,129 Climbing Chicago Center
Mon 05:05:20 PM 41.8808 -85.9650 83° East 577 664 30,800 1,887 Climbing Chicago Center
Mon 05:06:22 PM 41.9028 -85.7428 82° East 593 682 32,800 1,935 Climbing Chicago Center
Mon 05:07:24 PM 41.9239 -85.5181 83° East 599 689 34,800 1,694 Climbing Chicago Center
Mon 05:08:26 PM 41.9447 -85.2939 83° East 597 687 36,300 1,597 Climbing Chicago Center
Mon 05:09:28 PM 41.9511 -85.0231 88° East 600 690 38,100 1,500 Climbing Chicago Center
Mon 05:10:30 PM 41.9494 -84.8036 91° East 592 681 39,400 1,113 Climbing Chicago Center
Mon 05:11:32 PM 41.9483 -84.5856 90° East 584 672 40,400 774 Climbing Chicago Center
Mon 05:12:34 PM 41.9458 -84.3672 91° East 585 673 41,000 290 Climbing Chicago Center
Mon 05:13:36 PM 41.9442 -84.1433 90° East 597 687 41,000  Level Chicago Center
Mon 05:14:31 PM 41.9411 -83.9244 91° East 607 699 41,000  Level Cleveland Center
Mon 05:15:33 PM 41.9389 -83.7008 91° East 606 697 41,000  Level Cleveland Center
Mon 05:16:34 PM 41.9347 -83.4594 91° East 604 695 41,000  Level Cleveland Center
Mon 05:17:36 PM 41.9336 -83.2325 90° East 604 695 41,000  Level Cleveland Center
Mon 05:18:38 PM 41.9325 -82.9939 90° East 599 689 41,000  Level Cleveland Center
Mon 05:19:40 PM 41.9308 -82.7725 91° East 598 688 41,000  Level Cleveland Center
Mon 05:20:42 PM 41.9264 -82.5508 91° East 597 687 41,000  Level Cleveland Center
Mon 05:21:43 PM 41.9253 -82.3292 90° East 598 688 41,000  Level Cleveland Center
Mon 05:22:45 PM 41.9203 -82.0628 91° East 603 694 41,000  Level Cleveland Center
Mon 05:23:47 PM 41.9175 -81.8358 91° East 601 692 41,000  Level Cleveland Center
Mon 05:24:49 PM 41.9403 -81.6069 82° East 611 703 41,000  Level Cleveland Center
Mon 05:25:51 PM 41.9669 -81.3764 81° East 614 707 41,000  Level Cleveland Center
Mon 05:26:53 PM 41.9911 -81.1469 82° East 612 704 41,000  Level Cleveland Center
Mon 05:27:55 PM 42.0139 -80.9189 82° East 609 701 41,000  Level Cleveland Center
Mon 05:28:56 PM 42.0383 -80.6917 82° East 607 699 41,000  Level Cleveland Center
Mon 05:29:58 PM 42.0614 -80.4639 82° East 609 701 41,000  Level Cleveland Center
Mon 05:31:00 PM 42.0814 -80.2369 83° East 606 697 41,000  Level Cleveland Center
Mon 05:32:02 PM 42.0608 -79.9811 96° East 593 682 41,000  Level Cleveland Center
Mon 05:33:04 PM 42.0425 -79.7594 96° East 597 687 41,000  Level Cleveland Center
Mon 05:34:06 PM 42.0236 -79.5400 97° East 594 684 41,000  Level Cleveland Center
Mon 05:35:08 PM 42.0044 -79.3189 97° East 596 686 41,000  Level Cleveland Center
Mon 05:36:10 PM 41.9844 -79.0981 97° East 596 686 41,000  Level Cleveland Center
Mon 05:37:12 PM 41.9636 -78.8783 97° East 594 684 41,000  Level Cleveland Center
Mon 05:38:13 PM 41.9436 -78.6575 97° East 594 684 41,000  Level Cleveland Center
Mon 05:39:15 PM 41.9183 -78.3939 97° East 593 682 41,000 -629 Level Cleveland Center
Mon 05:40:17 PM 41.8969 -78.1761 97° East 591 680 39,700 -2,226 Descending Cleveland Center
Mon 05:41:19 PM 41.8767 -77.9656 97° East 579 666 36,400 -2,370 Descending Cleveland Center
Mon 05:42:16 PM 41.8453 -77.7875 103° East 564 649 35,000 -718 Descending New York Center
Mon 05:43:16 PM 41.7981 -77.5961 108° East 550 633 35,000  Level New York Center
Mon 05:44:16 PM 41.7483 -77.4103 110° East 538 619 35,000 -600 Level New York Center
Mon 05:45:16 PM 41.7000 -77.2247 109° East 533 613 33,800 -1,600 Descending New York Center
Mon 05:46:16 PM 41.6511 -77.0506 111° Southeast 513 590 31,800 -2,000 Descending New York Center
Mon 05:47:16 PM 41.6058 -76.8800 109° East 497 572 29,800 1,600 Descending New York Center
Mon 05:48:16 PM 41.5544 -76.7006 111° Southeast 480 552 35,000 -2,150 Climbing New York Center
Mon 05:49:16 PM 41.5528 -76.5258 91° East 461 531 25,500 -5,366 Descending New York Center
Mon 05:50:19 PM 41.6044 -76.3581 68° East 461 531 24,000 -738 Descending New York Center
Mon 05:51:18 PM 41.5389 -76.2475 128° Southeast 368 423 24,000 -93 Level New York Center
Mon 05:52:28 PM 41.4439 -76.1344 138° Southeast 360 414 23,800 -923 Descending New York Center
Mon 05:53:28 PM 41.3875 -76.0028 120° Southeast 387 445 22,000 -1,650 Descending New York Center
Mon 05:54:28 PM 41.3425 -75.8831 117° Southeast 400 460 20,500 -1,550 Descending New York Center
Mon 05:55:28 PM 41.2942 -75.7497 116° Southeast 400 460 18,900 -1,400 Descending New York Center
Mon 05:56:28 PM 41.2439 -75.6053 115° Southeast 395 455 17,700 -1,650 Descending New York Center
Mon 05:57:28 PM 41.2011 -75.4781 114° Southeast 383 441 15,600 -2,150 Descending New York Center
Mon 05:58:28 PM 41.1658 -75.3681 113° Southeast 371 427 13,400 -2,300 Descending New York Center
Mon 05:59:28 PM 41.1208 -75.2356 114° Southeast 359 413 11,000 -2,250 Descending New York Center
Mon 06:00:28 PM 41.0833 -75.1258 114° Southeast 340 391 8,900 -2,000 Descending New York Center
Mon 06:01:28 PM 41.0478 -75.0192 114° Southeast 326 375 7,000 -1,950 Descending New York Center
Mon 06:02:28 PM 41.0056 -74.9119 118° Southeast 321 369 5,000 -1,450 Descending New York Center
Mon 06:03:28 PM 40.9675 -74.8133 117° Southeast 316 364 4,100 -450 Descending New York Center
Mon 06:04:28 PM 40.9433 -74.7214 109° East 300 345 4,100 -250 Level New York Center
Mon 06:05:28 PM 41.0022 -74.6422 45° Northeast 244 281 3,600 -550 Descending New York Center
Mon 06:06:28 PM 41.0525 -74.5764 45° Northeast 244 281 3,000 -200 Descending New York Center
Mon 06:07:28 PM 41.0514 -74.4744 91° East 255 293 3,200 50 Climbing New York Center
Mon 06:08:28 PM 41.0481 -74.3808 93° East 278 320 3,100 -100 Descending New York Center
Mon 06:09:28 PM 41.0389 -74.2703 96° East 271 312 3,000 -450 Descending New York Center
Mon 06:10:28 PM 41.0331 -74.1819 95° East 252 290 2,200 -450 Descending New York Center
Mon 06:11:28 PM 41.0311 -74.1103 92° East 229 264 2,100 -50 Descending New York Center
Mon 06:12:28 PM 40.9908 -74.0644 139° Southeast 172 198 2,100 -50 Level New York Center
Mon 06:13:28 PM 40.9472 -74.0539 170° South 172 198 2,000 -446 Descending New York Center
Mon 06:14:29 PM 40.9000 -74.0500 176° South 132 152 1,200 -738 Descending New York TRACON
Mon 06:15:30 PM 40.8833 -74.0500 180° South 119 137 500 -689 Descending New York TRACON
Mon 06:17:00 PM 40.8500 -74.0500 136° Southeast  Level FlightAware Approximate
Mon 06:24:00 PM 40.8501 -74.0608 136° Southeast  Level Estimated

Login

Don't have an account? Register now (free) for customized features, flight alerts, and more!